WXM80 ListenWXM80 Stop

You find our weather info also at:

UK Metoffice

WeatherCloud

Weather Underground

Northeastern Weather Network

AWEKAS

Citizen Weather Observer Program (CWOP)

HAMweather, WeatherForYou, PWS Weather


Weather Underground History page Text

Daily Summary for September 7, 2017 Units:  Metric    English   Both
« Previous Day
Next Day »
Daily Weekly Monthly Yearly Custom
  High: Low: Average:
Temperature: 24.8 °C 15.2 °C 19.2 °C
Dew Point: 18.1 °C 11.8 °C 15 °C
Humidity: 97 % 53 % 79 %
Wind Speed: 10 km/h 0 km/h 3.1 km/h
Wind Gust: 22.5 km/h - -
Wind:- - WSW
Pressure: 1014.1 hPa 1006 hPa -
Precipitation: 1.27 mm    
Historical Graphs
 
 
Tabular Data for September 7, 2017
Time Temperature Dew Point Pressure Wind Wind Speed Wind Gust Humidity Rainfall Rate (Hourly)
00:07 16.8 °C 16.1 °C 1009.4 hPa North 3.5 km/h 5.6 km/h 96 % 2.03 mm
00:12 16.7 °C 16.1 °C 1009 hPa North 1.8 km/h 5.6 km/h 96 % 1.78 mm
00:17 16.8 °C 16.1 °C 1009 hPa NNW 4.3 km/h 7.4 km/h 96 % 1.52 mm
00:22 16.8 °C 16.1 °C 1009 hPa North 5.1 km/h 7.4 km/h 96 % 1.52 mm
00:27 16.7 °C 16.1 °C 1009 hPa NNE 2.3 km/h 5.6 km/h 96 % 1.27 mm
00:32 16.7 °C 16.1 °C 1009.4 hPa NNE 0.5 km/h 5.6 km/h 96 % 1.27 mm
00:37 16.7 °C 16.1 °C 1009.7 hPa NNE 0.8 km/h 3.7 km/h 96 % 0.76 mm
00:42 16.7 °C 16 °C 1009.4 hPa Calm     96 % 0.51 mm
00:53 16.7 °C 16 °C 1009.4 hPa Calm     96 % 0.51 mm
00:58 16.7 °C 16 °C 1009 hPa Calm     96 % 0.51 mm
01:03 16.7 °C 16 °C 1009 hPa Calm   1.6 km/h 96 % 0.25 mm
01:08 16.7 °C 16 °C 1009 hPa Calm     96 % 0.25 mm
01:13 16.6 °C 15.9 °C 1008.7 hPa Calm   1.9 km/h 96 % 0.25 mm
01:18 16.6 °C 15.9 °C 1008.7 hPa Calm     96 % 0.25 mm
01:23 16.6 °C 15.9 °C 1008.7 hPa Calm     96 % 0.25 mm
01:28 16.6 °C 15.9 °C 1008.4 hPa Calm     96 % 0.25 mm
01:33 16.6 °C 15.9 °C 1007.7 hPa Calm   1.9 km/h 96 % 0.25 mm
01:38 16.7 °C 16 °C 1008 hPa Calm     96 % 0.25 mm
01:43 16.7 °C 16.2 °C 1007.7 hPa North 0.2 km/h 1.9 km/h 97 % 0.25 mm
01:48 16.7 °C 16.2 °C 1008 hPa Calm     97 % 0 mm
01:53 16.7 °C 16.2 °C 1008 hPa North 0.3 km/h 1.9 km/h 97 % 0 mm
01:58 16.7 °C 16.2 °C 1007.7 hPa NE 0.6 km/h 1.9 km/h 97 % 0 mm
02:03 16.7 °C 16.2 °C 1007.3 hPa Calm     97 % 0 mm
02:08 16.7 °C 16.2 °C 1007.7 hPa Calm     97 % 0 mm
02:13 16.7 °C 16.2 °C 1007.3 hPa NE 0.6 km/h 1.6 km/h 97 % 0 mm
02:18 16.6 °C 16.1 °C 1007.7 hPa Calm     97 % 0 mm
02:23 16.6 °C 16.1 °C 1007 hPa Calm     97 % 0 mm
02:28 16.7 °C 16.2 °C 1007.3 hPa NE 0.5 km/h 3.7 km/h 97 % 0 mm
02:33 16.6 °C 16.1 °C 1007.3 hPa NE 1 km/h 3.2 km/h 97 % 0 mm
02:39 16.6 °C 16.1 °C 1007 hPa Calm   1.9 km/h 97 % 0 mm
02:44 16.6 °C 16.1 °C 1007 hPa Calm     97 % 0 mm
02:49 16.6 °C 16.1 °C 1006 hPa SE 0.8 km/h 3.7 km/h 97 % 0 mm
02:54 16.6 °C 16.1 °C 1006.3 hPa ESE 0.3 km/h 5.6 km/h 97 % 0 mm
02:59 16.6 °C 16.1 °C 1006.7 hPa Calm     97 % 0 mm
03:04 16.6 °C 16.1 °C 1006.3 hPa ESE 1.3 km/h 5.6 km/h 97 % 0 mm
03:09 16.6 °C 16.1 °C 1006.3 hPa Calm   1.9 km/h 97 % 0 mm
03:14 16.5 °C 16 °C 1006.3 hPa ESE 0.2 km/h 1.9 km/h 97 % 0 mm
03:19 16.5 °C 16 °C 1006.3 hPa ESE 0.2 km/h 1.9 km/h 97 % 0 mm
03:24 16.4 °C 15.9 °C 1006.7 hPa WSW 2.9 km/h 5.6 km/h 97 % 0 mm
03:29 16.4 °C 15.9 °C 1007.3 hPa SW 6 km/h 16.7 km/h 97 % 0 mm
03:34 16.5 °C 16 °C 1007.3 hPa SSW 8.5 km/h 16.7 km/h 97 % 0 mm
03:39 16.5 °C 16 °C 1007.3 hPa WSW 1.6 km/h 7.4 km/h 97 % 0 mm
03:44 16.6 °C 16.1 °C 1007.3 hPa WNW 5.6 km/h 8 km/h 97 % 0 mm
03:49 16.6 °C 16.1 °C 1007.3 hPa South 4.3 km/h 14.5 km/h 97 % 0 mm
03:54 16.7 °C 16.2 °C 1007.7 hPa WSW 3.4 km/h 8 km/h 97 % 0 mm
03:59 16.7 °C 16.2 °C 1007.7 hPa WNW 2.3 km/h 5.6 km/h 97 % 0.25 mm
04:04 16.7 °C 16.2 °C 1007.7 hPa SW 4.5 km/h 9.3 km/h 97 % 0.25 mm
04:14 16.7 °C 16.2 °C 1007.7 hPa West 1.9 km/h 5.6 km/h 97 % 0.25 mm
04:19 16.7 °C 16.2 °C 1007.7 hPa Calm   5.6 km/h 97 % 0.25 mm
04:24 16.7 °C 16.2 °C 1007.7 hPa SW 1.4 km/h 5.6 km/h 97 % 0.25 mm
04:29 16.7 °C 16.2 °C 1007.7 hPa WSW 1.4 km/h 3.2 km/h 97 % 0.25 mm
04:34 16.7 °C 16.2 °C 1007.7 hPa SW 0.3 km/h 1.9 km/h 97 % 0.25 mm
04:39 16.7 °C 16.2 °C 1007.7 hPa WSW 0.8 km/h 3.2 km/h 97 % 0.25 mm
04:44 16.7 °C 16.2 °C 1007.7 hPa WSW 3.7 km/h 7.4 km/h 97 % 0.25 mm
04:49 16.7 °C 16.2 °C 1007.7 hPa WSW 4.7 km/h 7.4 km/h 97 % 0.25 mm
04:54 16.7 °C 16.2 °C 1008 hPa SW 1.3 km/h 5.6 km/h 97 % 0.25 mm
05:00 16.7 °C 16.2 °C 1008 hPa SW 2.6 km/h 5.6 km/h 97 % 0 mm
05:05 16.7 °C 16.2 °C 1007.7 hPa Calm   1.6 km/h 97 % 0 mm
05:08 16.7 °C 16.2 °C 1008 hPa Calm   1.9 km/h 97 % 0 mm
05:13 16.7 °C 16.2 °C 1008 hPa WSW 1.8 km/h 5.6 km/h 97 % 0 mm
05:18 16.6 °C 16.1 °C 1008 hPa SW 2.9 km/h 9.3 km/h 97 % 0 mm
05:23 16.6 °C 16.1 °C 1008 hPa SSW 3.9 km/h 9.3 km/h 97 % 0 mm
05:28 16.6 °C 16.1 °C 1008 hPa SW 3.2 km/h 5.6 km/h 97 % 0 mm
05:29 16.6 °C 16.1 °C 1008 hPa SW 0.3 km/h 5.6 km/h 97 % 0 mm
05:34 16.6 °C 16.1 °C 1008.4 hPa SW 4.3 km/h 7.4 km/h 97 % 0 mm
05:39 16.6 °C 16.1 °C 1008 hPa WSW 0.8 km/h 3.7 km/h 97 % 0 mm
05:45 16.6 °C 16.1 °C 1008.4 hPa West 3.4 km/h 11.1 km/h 97 % 0 mm
05:50 16.6 °C 16.1 °C 1008.4 hPa WSW 7.1 km/h 11.1 km/h 97 % 0 mm
05:55 16.5 °C 16 °C 1008.4 hPa SW 4 km/h 8 km/h 97 % 0 mm
06:00 16.5 °C 16 °C 1008.4 hPa West 2.7 km/h 11.3 km/h 97 % 0 mm
06:05 16.5 °C 16 °C 1008.4 hPa West 4.5 km/h 16.1 km/h 97 % 0.51 mm
06:10 16.5 °C 16 °C 1008.7 hPa WNW 5.6 km/h 13 km/h 97 % 0.51 mm
06:15 16.4 °C 15.9 °C 1008.7 hPa WSW 9 km/h 20.4 km/h 97 % 0.51 mm
06:20 16.3 °C 15.8 °C 1009 hPa NW 5.8 km/h 11.1 km/h 97 % 0.51 mm
06:25 16.2 °C 15.7 °C 1009 hPa West 2.7 km/h 5.6 km/h 97 % 0.51 mm
06:30 16.1 °C 15.5 °C 1009 hPa West 3.1 km/h 7.4 km/h 96 % 0.51 mm
06:35 16.1 °C 15.6 °C 1009 hPa WNW 6.9 km/h 11.1 km/h 97 % 0.51 mm
06:40 16.1 °C 15.4 °C 1009.4 hPa WNW 1.4 km/h 6.4 km/h 96 % 0.51 mm
06:45 16 °C 15.5 °C 1009.4 hPa West 2.7 km/h 7.4 km/h 97 % 0.51 mm
06:50 15.9 °C 15.3 °C 1009.4 hPa WSW 7.4 km/h 14.5 km/h 96 % 0.51 mm
06:55 15.8 °C 15.2 °C 1009.4 hPa NNW 1 km/h 3.2 km/h 96 % 0.51 mm
07:00 15.8 °C 15.2 °C 1009.4 hPa WNW 2.4 km/h 5.6 km/h 96 % 0.25 mm
07:05 15.7 °C 15.1 °C 1009.4 hPa WSW 1 km/h 5.6 km/h 96 % 0 mm
07:10 15.6 °C 14.9 °C 1009.4 hPa NW 0.2 km/h 1.9 km/h 96 % 0 mm
07:15 15.5 °C 14.9 °C 1009.4 hPa Calm   1.9 km/h 96 % 0 mm
07:20 15.4 °C 14.8 °C 1009.4 hPa West 1.4 km/h 3.2 km/h 96 % 0 mm
07:25 15.3 °C 14.6 °C 1009.4 hPa WSW 1 km/h 5.6 km/h 95 % 0 mm
07:31 15.3 °C 14.5 °C 1009.4 hPa WSW 1.6 km/h 11.3 km/h 95 % 0 mm
07:36 15.2 °C 14.6 °C 1009.4 hPa West 1.6 km/h 8 km/h 96 % 0 mm
07:46 15.2 °C 14.6 °C 1009.4 hPa Calm   6.4 km/h 96 % 0 mm
07:51 15.2 °C 14.6 °C 1009.4 hPa Calm   4.8 km/h 96 % 0 mm
07:56 15.2 °C 14.6 °C 1009.4 hPa Calm     96 % 0 mm
08:01 15.3 °C 14.7 °C 1009.4 hPa Calm     96 % 0 mm
08:06 15.3 °C 14.7 °C 1009.4 hPa WSW 3.2 km/h 9.7 km/h 96 % 0 mm
08:11 15.3 °C 14.7 °C 1009.4 hPa Calm   8 km/h 96 % 0 mm
08:16 15.4 °C 14.8 °C 1009.7 hPa SW 1.6 km/h 8 km/h 96 % 0 mm
08:21 15.4 °C 14.8 °C 1009.4 hPa SW 1.6 km/h 9.7 km/h 96 % 0 mm
08:26 15.4 °C 14.8 °C 1009.7 hPa SW 1.6 km/h 4.8 km/h 96 % 0 mm
08:31 15.4 °C 14.8 °C 1009.7 hPa SW 1.6 km/h 6.4 km/h 96 % 0 mm
08:36 15.5 °C 14.9 °C 1009.7 hPa SW 3.2 km/h 12.9 km/h 96 % 0 mm
08:41 15.6 °C 15.1 °C 1009.4 hPa WSW 3.2 km/h 9.7 km/h 97 % 0 mm
08:46 15.7 °C 15.2 °C 1009.7 hPa WSW 1.6 km/h 8 km/h 97 % 0 mm
08:51 15.8 °C 15.3 °C 1009.4 hPa WSW 8 km/h 11.3 km/h 97 % 0 mm
08:56 15.8 °C 15.3 °C 1009.4 hPa WSW 1.6 km/h 8 km/h 97 % 0 mm
09:01 15.9 °C 15.4 °C 1009.4 hPa WSW 4.5 km/h 13 km/h 97 % 0 mm
09:06 15.9 °C 15.4 °C 1009.4 hPa Calm   3.7 km/h 97 % 0 mm
09:11 16 °C 15.5 °C 1009.7 hPa South 5.5 km/h 9.3 km/h 97 % 0 mm
09:16 16 °C 15.5 °C 1009.4 hPa West 3.5 km/h 5.6 km/h 97 % 0 mm
09:21 16 °C 15.5 °C 1009.7 hPa WSW 1.4 km/h 5.6 km/h 97 % 0 mm
09:26 16.1 °C 15.4 °C 1009.4 hPa WNW 2.7 km/h 5.6 km/h 96 % 0 mm
09:31 16.1 °C 15.4 °C 1009.7 hPa WSW 1.8 km/h 9.3 km/h 96 % 0 mm
09:36 16.2 °C 15.6 °C 1009.7 hPa WSW 3.7 km/h 7.4 km/h 96 % 0 mm
09:41 16.2 °C 15.6 °C 1009.7 hPa West 3.2 km/h 4.8 km/h 96 % 0 mm
09:46 16.3 °C 15.7 °C 1010 hPa SW 4.2 km/h 11.3 km/h 96 % 0 mm
09:52 16.4 °C 15.8 °C 1009.7 hPa WSW 4 km/h 9.3 km/h 96 % 0 mm
09:57 16.6 °C 15.9 °C 1009.7 hPa WSW 4 km/h 13 km/h 96 % 0 mm
10:02 16.8 °C 16 °C 1010 hPa WSW 6 km/h 11.1 km/h 95 % 0 mm
10:07 16.9 °C 16.1 °C 1010 hPa WSW 2.3 km/h 5.6 km/h 95 % 0 mm
10:12 17.1 °C 16.3 °C 1009.7 hPa WSW 3.5 km/h 9.7 km/h 95 % 0 mm
10:17 17.2 °C 16.2 °C 1010 hPa SW 6.4 km/h 14.5 km/h 94 % 0 mm
10:22 17.3 °C 16.2 °C 1010 hPa SSW 3.9 km/h 11.1 km/h 93 % 0 mm
10:27 17.5 °C 16.2 °C 1010 hPa SW 5.3 km/h 9.7 km/h 92 % 0 mm
10:32 17.7 °C 16.3 °C 1010 hPa West 1.8 km/h 8 km/h 92 % 0 mm
10:37 17.8 °C 16.3 °C 1010 hPa West 2.9 km/h 9.7 km/h 91 % 0 mm
10:42 18 °C 16.5 °C 1010 hPa West 4.3 km/h 5.6 km/h 91 % 0 mm
10:47 18.2 °C 16.7 °C 1010 hPa WSW 4 km/h 8 km/h 91 % 0 mm
10:52 18.4 °C 16.9 °C 1010 hPa WSW 8.5 km/h 14.5 km/h 91 % 0 mm
10:57 18.7 °C 16.7 °C 1010 hPa SW 1.3 km/h 7.4 km/h 88 % 0 mm
11:02 19 °C 16.9 °C 1010 hPa WSW 6.9 km/h 11.3 km/h 88 % 0 mm
11:07 19.4 °C 16.8 °C 1010 hPa West 9.8 km/h 13 km/h 85 % 0 mm
11:12 19.8 °C 17 °C 1010 hPa SSE 6.8 km/h 9.3 km/h 84 % 0 mm
11:17 20.2 °C 17.6 °C 1010 hPa WSW 3.2 km/h 5.6 km/h 85 % 0 mm
11:22 20.7 °C 17.9 °C 1010 hPa West 3.5 km/h 9.3 km/h 84 % 0 mm
11:28 21.1 °C 17.5 °C 1010 hPa NW 2.9 km/h 9.3 km/h 80 % 0 mm
11:33 21.4 °C 17.7 °C 1010 hPa West 5.8 km/h 11.3 km/h 79 % 0 mm
11:38 21.8 °C 17.8 °C 1010.4 hPa West 2.6 km/h 5.6 km/h 78 % 0 mm
11:43 22.1 °C 17.3 °C 1010.4 hPa WSW 9.3 km/h 18.5 km/h 74 % 0 mm
11:48 22.4 °C 18 °C 1010.4 hPa WNW 5 km/h 11.1 km/h 76 % 0 mm
11:53 22.6 °C 17.5 °C 1010.4 hPa West 6.8 km/h 11.1 km/h 73 % 0 mm
11:58 22.8 °C 17.2 °C 1010.4 hPa SW 5.5 km/h 13 km/h 71 % 0 mm
12:03 23.1 °C 17.5 °C 1010.7 hPa WSW 6.6 km/h 18.5 km/h 71 % 0 mm
12:08 23.2 °C 17.4 °C 1010.7 hPa WSW 7.4 km/h 14.5 km/h 70 % 0 mm
12:13 23.2 °C 16.9 °C 1010.7 hPa ESE 4.5 km/h 13 km/h 68 % 0 mm
12:18 23.1 °C 17.3 °C 1010.7 hPa West 7.6 km/h 11.1 km/h 70 % 0 mm
12:23 23.1 °C 17.1 °C 1010.4 hPa West 7.9 km/h 14.8 km/h 69 % 0 mm
12:28 23.1 °C 17.3 °C 1010.4 hPa SW 8.2 km/h 12.9 km/h 70 % 0 mm
12:33 23.1 °C 16.7 °C 1010.4 hPa SW 7.4 km/h 9.7 km/h 67 % 0 mm
12:38 23.3 °C 17.6 °C 1010.4 hPa West 8.4 km/h 9.3 km/h 70 % 0 mm
12:43 23.4 °C 17.4 °C 1010.4 hPa NNW 3.5 km/h 11.1 km/h 69 % 0 mm
12:48 23.6 °C 17.1 °C 1010.4 hPa SW 3.1 km/h 9.3 km/h 67 % 0 mm
12:53 23.7 °C 16.7 °C 1010.7 hPa WSW 7.4 km/h 13 km/h 65 % 0 mm
12:58 23.7 °C 16.5 °C 1010.4 hPa WSW 4.8 km/h 14.8 km/h 64 % 0 mm
13:03 23.8 °C 17.1 °C 1010.4 hPa WNW 6.6 km/h 7.4 km/h 66 % 0 mm
13:09 23.8 °C 16.6 °C 1010.4 hPa West 6.9 km/h 13 km/h 64 % 0 mm
13:14 23.9 °C 18.1 °C 1010.4 hPa NW 2.7 km/h 6.4 km/h 70 % 0 mm
13:19 23.9 °C 16.9 °C 1010.4 hPa SW 8.9 km/h 18.5 km/h 65 % 0 mm
13:24 23.9 °C 16.7 °C 1010 hPa NW 6.8 km/h 16.7 km/h 64 % 0 mm
13:29 23.9 °C 16.2 °C 1010.4 hPa SW 8.9 km/h 16.1 km/h 62 % 0 mm
13:34 23.9 °C 16.9 °C 1010.4 hPa NW 6.6 km/h 11.3 km/h 65 % 0 mm
13:39 24 °C 16.8 °C 1010.4 hPa West 7.7 km/h 13 km/h 64 % 0 mm
13:44 24.2 °C 17.2 °C 1010.4 hPa SW 7.1 km/h 13 km/h 65 % 0 mm
13:49 24.2 °C 17 °C 1010 hPa WNW 5.3 km/h 11.3 km/h 64 % 0 mm
13:54 24.3 °C 16.8 °C 1010.4 hPa WNW 2.9 km/h 9.3 km/h 63 % 0 mm
13:59 24.4 °C 16.6 °C 1010 hPa NW 2.9 km/h 14.8 km/h 62 % 0 mm
14:04 24.4 °C 16.6 °C 1010 hPa West 2.3 km/h 16.7 km/h 62 % 0 mm
14:09 24.5 °C 17.2 °C 1010 hPa WSW 3.5 km/h 6.4 km/h 64 % 0 mm
14:14 24.6 °C 17.1 °C 1010 hPa NNE 7.2 km/h 14.5 km/h 63 % 0 mm
14:19 24.7 °C 16.7 °C 1010 hPa SSW 1 km/h 11.1 km/h 61 % 0 mm
14:24 24.7 °C 16.4 °C 1010 hPa NW 3.1 km/h 9.7 km/h 60 % 0 mm
14:29 24.8 °C 16.5 °C 1010 hPa WSW 4.7 km/h 11.1 km/h 60 % 0 mm
14:34 24.8 °C 16.8 °C 1010 hPa WSW 10 km/h 18.5 km/h 61 % 0 mm
14:39 24.7 °C 16.7 °C 1010 hPa WNW 1.3 km/h 7.4 km/h 61 % 0 mm
14:41 24.7 °C 16.7 °C 1010 hPa West 4.8 km/h 12.9 km/h 61 % 0 mm
14:46 24.7 °C 16.7 °C 1010 hPa WNW 2.1 km/h 9.3 km/h 61 % 0 mm
14:51 24.6 °C 16.3 °C 1009.7 hPa WNW 6.8 km/h 14.8 km/h 60 % 0 mm
14:56 24.6 °C 16.6 °C 1009.7 hPa WNW 2.3 km/h 6.4 km/h 61 % 0 mm
15:01 24.6 °C 16.3 °C 1009.7 hPa NW 5.8 km/h 13 km/h 60 % 0 mm
15:06 24.6 °C 16.1 °C 1009.7 hPa WNW 7.1 km/h 13 km/h 59 % 0 mm
15:11 24.6 °C 16.3 °C 1009.7 hPa West 4.8 km/h 11.3 km/h 60 % 0 mm
15:16 24.6 °C 16 °C 1009.7 hPa WNW 3.9 km/h 11.1 km/h 59 % 0 mm
15:21 24.4 °C 16.2 °C 1009.7 hPa West 5.5 km/h 7.4 km/h 60 % 0 mm
15:26 24.3 °C 16.3 °C 1009.7 hPa WNW 2.3 km/h 5.6 km/h 61 % 0 mm
15:31 24.2 °C 16.2 °C 1009.7 hPa WSW 5.3 km/h 9.3 km/h 61 % 0 mm
15:36 24.2 °C 16.2 °C 1009.7 hPa WSW 4.5 km/h 11.1 km/h 61 % 0 mm
15:41 24.2 °C 15.9 °C 1009.7 hPa WSW 6.1 km/h 13 km/h 60 % 0 mm
15:46 24.2 °C 15.9 °C 1009.7 hPa SW 5.8 km/h 11.1 km/h 60 % 0 mm
15:51 24.1 °C 15.6 °C 1009.7 hPa SSW 3.4 km/h 6.4 km/h 59 % 0 mm
15:56 24.2 °C 15.4 °C 1009.7 hPa SW 7.9 km/h 14.8 km/h 58 % 0 mm
16:01 24.2 °C 15.4 °C 1009.7 hPa SW 6.9 km/h 14.8 km/h 58 % 0 mm
16:06 24.2 °C 15.2 °C 1009.7 hPa WSW 3.2 km/h 13 km/h 57 % 0 mm
16:11 24.3 °C 15.5 °C 1009.7 hPa WSW 5.5 km/h 22.5 km/h 58 % 0 mm
16:16 24.3 °C 14.9 °C 1009.4 hPa SW 6.3 km/h 13 km/h 56 % 0 mm
16:21 24.3 °C 14.7 °C 1009.7 hPa WSW 7.6 km/h 11.1 km/h 55 % 0 mm
16:26 24.3 °C 15.2 °C 1009.7 hPa SW 8.9 km/h 13 km/h 57 % 0 mm
16:31 24.3 °C 15.2 °C 1009.7 hPa WSW 3.2 km/h 5.6 km/h 57 % 0 mm
16:36 24.2 °C 14.9 °C 1009.7 hPa WSW 5.6 km/h 8 km/h 56 % 0 mm
16:41 24.2 °C 15.4 °C 1009.7 hPa WSW 2.1 km/h 7.4 km/h 58 % 0 mm
16:46 24.2 °C 15.9 °C 1009.7 hPa SW 9.2 km/h 13 km/h 60 % 0 mm
16:51 24.2 °C 15.4 °C 1009.7 hPa West 4 km/h 5.6 km/h 58 % 0 mm
16:56 24.1 °C 15.1 °C 1009.7 hPa WSW 7.6 km/h 8 km/h 57 % 0 mm
17:01 24.1 °C 15.6 °C 1009.7 hPa SSW 1.3 km/h 6.4 km/h 59 % 0 mm
17:06 23.9 °C 14.9 °C 1009.7 hPa Calm   5.6 km/h 57 % 0 mm
17:11 23.9 °C 15.4 °C 1009.7 hPa SSW 0.3 km/h 1.9 km/h 59 % 0 mm
17:16 23.8 °C 14.8 °C 1009.7 hPa SW 3.4 km/h 9.3 km/h 57 % 0 mm
17:21 23.7 °C 14.2 °C 1010 hPa WSW 6.1 km/h 13 km/h 55 % 0 mm
17:26 23.6 °C 14.1 °C 1010 hPa NW 5 km/h 17.7 km/h 55 % 0 mm
17:31 23.4 °C 13.8 °C 1009.7 hPa WNW 8.4 km/h 13 km/h 55 % 0 mm
17:36 23.3 °C 13.2 °C 1009.7 hPa SW 9 km/h 13 km/h 53 % 0 mm
17:41 23.1 °C 13.6 °C 1010 hPa SSW 6.4 km/h 11.3 km/h 55 % 0 mm
17:46 22.9 °C 13.1 °C 1010 hPa SSW 4.3 km/h 13 km/h 54 % 0 mm
17:52 22.8 °C 13.3 °C 1010 hPa SSW 5.1 km/h 5.6 km/h 55 % 0 mm
17:57 22.6 °C 12.8 °C 1010 hPa WSW 5 km/h 14.8 km/h 54 % 0 mm
18:02 22.4 °C 12.9 °C 1010 hPa SW 9 km/h 16.7 km/h 55 % 0 mm
18:07 22.3 °C 13.1 °C 1010 hPa WSW 2.9 km/h 5.6 km/h 56 % 0 mm
18:12 22.3 °C 13.1 °C 1010 hPa WSW 6.3 km/h 9.3 km/h 56 % 0 mm
18:17 22.1 °C 12.9 °C 1010 hPa WSW 4.7 km/h 11.1 km/h 56 % 0 mm
18:22 22 °C 13.1 °C 1010.4 hPa SW 3.2 km/h 6.4 km/h 57 % 0 mm
18:27 21.8 °C 12.9 °C 1010.4 hPa SW 2.3 km/h 5.6 km/h 57 % 0 mm
18:32 21.7 °C 13.1 °C 1010.4 hPa SSW 3.7 km/h 6.4 km/h 58 % 0 mm
18:37 21.6 °C 13 °C 1010.4 hPa WSW 2.1 km/h 5.6 km/h 58 % 0 mm
18:42 21.4 °C 13.1 °C 1010.4 hPa WSW 3.5 km/h 11.1 km/h 59 % 0 mm
18:44 21.4 °C 13.1 °C 1010.4 hPa SSW 4.3 km/h 7.4 km/h 59 % 0 mm
18:49 21.3 °C 12.9 °C 1010.7 hPa WSW 3.5 km/h 6.4 km/h 59 % 0 mm
18:54 21.1 °C 13.1 °C 1010.7 hPa WSW 1.1 km/h 9.3 km/h 60 % 0 mm
18:59 21 °C 12.9 °C 1010.7 hPa West 2.1 km/h 5.6 km/h 60 % 0 mm
19:04 20.9 °C 13.1 °C 1010.7 hPa South 1.4 km/h 5.6 km/h 61 % 0 mm
19:09 20.7 °C 12.7 °C 1010.7 hPa WSW 6.3 km/h 13 km/h 60 % 0 mm
19:14 20.6 °C 12.6 °C 1010.7 hPa SW 3.9 km/h 9.7 km/h 60 % 0 mm
19:19 20.5 °C 12.4 °C 1011.1 hPa WSW 4 km/h 4 km/h 60 % 0 mm
19:25 20.4 °C 12.4 °C 1011.1 hPa SW 1.6 km/h 5.6 km/h 60 % 0 mm
19:30 20.3 °C 12.3 °C 1011.1 hPa South 3.1 km/h 6.4 km/h 60 % 0 mm
19:35 20.2 °C 12.2 °C 1011.4 hPa Calm   3.7 km/h 60 % 0 mm
19:40 20.1 °C 12.1 °C 1011.4 hPa WSW 0.8 km/h 13 km/h 60 % 0 mm
19:45 20 °C 12.2 °C 1011.4 hPa WSW 1.8 km/h 7.4 km/h 61 % 0 mm
19:50 19.9 °C 12.2 °C 1011.4 hPa SW 2.3 km/h 5.6 km/h 61 % 0 mm
19:55 19.8 °C 11.8 °C 1011.7 hPa SSW 2.6 km/h 7.4 km/h 60 % 0 mm
20:00 19.7 °C 12 °C 1011.7 hPa SW 0.8 km/h 3.7 km/h 61 % 0 mm
20:05 19.6 °C 11.9 °C 1011.7 hPa SW 2.3 km/h 5.6 km/h 61 % 0 mm
20:10 19.5 °C 12 °C 1012.1 hPa SW 3.2 km/h 5.6 km/h 62 % 0 mm
20:15 19.4 °C 11.9 °C 1012.1 hPa SW 0.3 km/h 3.2 km/h 62 % 0 mm
20:20 19.3 °C 11.9 °C 1012.1 hPa SW 2.9 km/h 5.6 km/h 62 % 0 mm
20:25 19.2 °C 12 °C 1012.1 hPa SW 0.2 km/h 1.9 km/h 63 % 0 mm
20:30 19.1 °C 12.1 °C 1012.1 hPa SW 2.7 km/h 3.7 km/h 64 % 0 mm
20:35 19 °C 12.1 °C 1012.4 hPa WSW 2.6 km/h 3.2 km/h 64 % 0 mm
20:40 18.9 °C 11.9 °C 1012.4 hPa WSW 1.4 km/h 1.6 km/h 64 % 0 mm
20:46 18.8 °C 12.1 °C 1012.4 hPa WSW 1.3 km/h 3.7 km/h 65 % 0 mm
20:51 18.7 °C 11.9 °C 1012.4 hPa SW 2.3 km/h 3.7 km/h 65 % 0 mm
20:56 18.6 °C 11.9 °C 1012.8 hPa SW 1.6 km/h 6.4 km/h 65 % 0 mm
21:01 18.6 °C 12.1 °C 1012.8 hPa SW 0.5 km/h 5.6 km/h 66 % 0 mm
21:06 18.4 °C 12 °C 1012.8 hPa WSW 1.3 km/h 5.6 km/h 66 % 0 mm
21:11 18.3 °C 12.1 °C 1012.8 hPa WSW 3.1 km/h 5.6 km/h 67 % 0 mm
21:16 18.3 °C 12.1 °C 1012.8 hPa Calm   1.9 km/h 67 % 0 mm
21:21 18.2 °C 11.9 °C 1012.8 hPa SW 0.6 km/h 3.7 km/h 67 % 0 mm
21:26 18.1 °C 11.9 °C 1012.8 hPa SW 1.1 km/h 3.7 km/h 67 % 0 mm
21:31 18 °C 12 °C 1012.8 hPa Calm     68 % 0 mm
21:36 17.9 °C 11.9 °C 1012.8 hPa SW 0.3 km/h 3.2 km/h 68 % 0 mm
21:41 17.8 °C 12.1 °C 1013.1 hPa SW 1.6 km/h 5.6 km/h 69 % 0 mm
21:46 17.8 °C 12 °C 1013.1 hPa SSW 0.2 km/h 5.6 km/h 69 % 0 mm
21:51 17.7 °C 12.1 °C 1013.1 hPa SW 0.5 km/h 3.7 km/h 70 % 0 mm
21:56 17.6 °C 12 °C 1013.1 hPa SW 2.3 km/h 6.4 km/h 70 % 0 mm
22:01 17.4 °C 12.1 °C 1013.4 hPa WSW 1.6 km/h 5.6 km/h 71 % 0 mm
22:11 17.3 °C 11.9 °C 1013.4 hPa WSW 1.1 km/h 1.9 km/h 71 % 0 mm
22:17 17.2 °C 11.9 °C 1013.4 hPa West 3.9 km/h 9.3 km/h 71 % 0 mm
22:22 17.2 °C 12.1 °C 1013.4 hPa SSW 2.7 km/h 2.7 km/h 72 % 0 mm
22:27 17.1 °C 12 °C 1013.4 hPa SW 2.9 km/h 7.4 km/h 72 % 0 mm
22:32 17.1 °C 12 °C 1013.4 hPa SW 1.4 km/h 1.9 km/h 72 % 0 mm
22:37 17.1 °C 11.9 °C 1013.4 hPa Calm     72 % 0 mm
22:42 17.1 °C 11.9 °C 1013.4 hPa Calm     72 % 0 mm
22:47 17 °C 12.1 °C 1013.4 hPa SW 0.2 km/h 3.7 km/h 73 % 0 mm
22:52 17 °C 11.9 °C 1013.4 hPa WSW 1.8 km/h 6.4 km/h 72 % 0 mm
22:57 16.9 °C 11.8 °C 1013.4 hPa Calm     72 % 0 mm
23:02 16.9 °C 12.1 °C 1013.8 hPa SSW 0.6 km/h 4.8 km/h 73 % 0 mm
23:07 16.9 °C 12.1 °C 1013.8 hPa SSW 0.2 km/h 1.9 km/h 73 % 0 mm
23:12 16.9 °C 12 °C 1013.8 hPa SSW 0.3 km/h 5.6 km/h 73 % 0 mm
23:18 16.9 °C 12 °C 1013.8 hPa SW 1.4 km/h 5.6 km/h 73 % 0 mm
23:19 16.9 °C 12 °C 1013.8 hPa SW 0.6 km/h 3.7 km/h 73 % 0 mm
23:23 16.8 °C 11.9 °C 1013.8 hPa SW 0.2 km/h 3.7 km/h 73 % 0 mm
23:25 16.8 °C 11.9 °C 1013.8 hPa SW 0.3 km/h 1.9 km/h 73 % 0 mm
23:26 16.8 °C 11.9 °C 1013.8 hPa Calm   1.9 km/h 73 % 0 mm
23:27 16.8 °C 11.9 °C 1013.8 hPa Calm     73 % 0 mm
23:32 16.8 °C 11.9 °C 1013.8 hPa SW 0.8 km/h 3.7 km/h 73 % 0 mm
23:35 16.8 °C 11.9 °C 1013.8 hPa SW 0.8 km/h 1.6 km/h 73 % 0 mm
23:40 16.7 °C 12.1 °C 1013.8 hPa SW 0.5 km/h 1.9 km/h 74 % 0 mm
23:45 16.7 °C 11.8 °C 1013.8 hPa Calm   1.9 km/h 73 % 0 mm
23:50 16.6 °C 11.9 °C 1014.1 hPa SW 3.1 km/h 9.3 km/h 74 % 0 mm
23:55 16.6 °C 11.9 °C 1014.1 hPa SSE 0.5 km/h 1.9 km/h 74 % 0 mm
Crab Meadow Weather
Compliments of Weather Underground - 3 mb

Script developed by  Jim McMurry - jmcmurry@mwt.net Adapted for the template by  Wim van der Kuil - Leuven-Template.eu

Astronomy: Pluto is not a planet, because it does not have a fixed orbit and it's orbit comes in between the orbit of another planet (Neptune).